Time;durP1;ratioP1;P1;durP2;ratioP2;P2;SDS_P1;SDS_P2;PMS_P1;PMS_P2;Temp;Humidity;BMP_temperature;BMP_pressure;BME280_temperature;BME280_humidity;BME280_pressure;Samples;Min_cycle;Max_cycle;Signal;HPM_P1;HPM_P2
2020/12/04 05:27:34;;;;;;;17.70;10.53;;;-0.80;91.60;;;;;;6169954;22;20181;-92
2020/12/04 05:30:00;;;;;;;22.40;11.90;;;-0.70;91.80;;;;;;5031455;28;20308;-80
2020/12/04 05:36:28;;;;;;;18.23;10.70;;;-0.70;91.60;;;;;;5042449;28;20170;-81
2020/12/04 05:39:00;;;;;;;23.37;11.30;;;-0.50;91.50;;;;;;5034991;28;20272;-81
2020/12/04 05:41:28;;;;;;;21.67;11.60;;;-0.60;91.50;;;;;;5036325;28;20215;-80
2020/12/04 05:44:11;;;;;;;16.73;10.80;;;-0.60;91.60;;;;;;5113885;27;20588;-81
2020/12/04 05:46:37;;;;;;;18.87;10.97;;;-0.50;91.80;;;;;;5113287;28;20514;-80
2020/12/04 05:49:08;;;;;;;18.63;11.33;;;-0.50;91.20;;;;;;5113075;28;20258;-80
2020/12/04 05:51:35;;;;;;;19.07;11.20;;;-0.50;91.40;;;;;;5114098;28;20180;-80
2020/12/04 05:54:03;;;;;;;17.50;10.60;;;-0.60;91.30;;;;;;5110548;28;20202;-87
2020/12/04 05:56:32;;;;;;;17.93;11.30;;;-0.60;91.30;;;;;;5113985;27;20200;-80
2020/12/04 06:01:35;;;;;;;18.33;11.53;;;-0.50;91.50;;;;;;6246620;22;20155;-80
2020/12/04 06:04:06;;;;;;;17.50;10.90;;;-0.40;91.30;;;;;;5077124;27;20700;-80
2020/12/04 06:06:33;;;;;;;17.77;10.60;;;-0.30;91.30;;;;;;5062244;28;20198;-80
2020/12/04 06:13:12;;;;;;;16.77;10.77;;;-0.20;91.00;;;;;;5054022;28;20166;-80
2020/12/04 06:15:47;;;;;;;18.20;10.87;;;-0.20;90.90;;;;;;5046759;28;20205;-82
2020/12/04 06:18:14;;;;;;;17.73;11.17;;;-0.20;91.00;;;;;;5045655;28;20207;-87
2020/12/04 06:20:43;;;;;;;16.93;10.80;;;-0.10;91.10;;;;;;5042184;28;20555;-80
2020/12/04 06:23:14;;;;;;;18.30;11.43;;;0.00;90.90;;;;;;5040541;28;20587;-80
2020/12/04 06:26:07;;;;;;;18.00;11.70;;;-0.20;90.80;;;;;;5038237;28;20249;-84
2020/12/04 06:28:41;;;;;;;17.50;10.63;;;-0.20;91.30;;;;;;5046456;28;20223;-81
2020/12/04 06:31:12;;;;;;;17.23;10.27;;;-0.10;91.30;;;;;;5054941;28;20185;-81
2020/12/04 06:33:48;;;;;;;18.80;11.67;;;0.00;91.30;;;;;;5054108;28;20221;-80
2020/12/04 06:39:42;;;;;;;16.13;10.77;;;0.00;91.10;;;;;;5045729;28;20225;-87
2020/12/04 06:42:09;;;;;;;17.87;11.33;;;-0.10;91.10;;;;;;5047140;28;20215;-83
2020/12/04 06:44:35;;;;;;;18.17;11.30;;;-0.20;91.10;;;;;;5052851;28;20233;-84
2020/12/04 06:47:13;;;;;;;17.67;11.50;;;-0.30;91.00;;;;;;5040566;28;20234;-82
2020/12/04 06:49:40;;;;;;;18.43;11.63;;;-0.40;91.20;;;;;;5036635;28;20205;-80
2020/12/04 06:52:14;;;;;;;19.37;10.73;;;-0.50;91.50;;;;;;5038951;28;20226;-82
2020/12/04 06:54:42;;;;;;;24.83;12.73;;;-0.50;91.70;;;;;;5032471;28;20195;-85
2020/12/04 06:57:09;;;;;;;22.00;12.13;;;-0.50;91.90;;;;;;5026120;28;20566;-84
2020/12/04 06:59:37;;;;;;;19.00;11.67;;;-0.30;91.80;;;;;;5020199;28;20684;-83
2020/12/04 07:02:08;;;;;;;18.93;11.10;;;-0.30;91.80;;;;;;5030351;28;20656;-80
2020/12/04 07:04:39;;;;;;;19.83;11.80;;;-0.30;91.60;;;;;;5023674;28;20195;-84
2020/12/04 07:07:10;;;;;;;20.50;11.60;;;-0.30;91.70;;;;;;5017815;28;20226;-83
2020/12/04 07:09:37;;;;;;;20.23;12.10;;;-0.30;91.60;;;;;;5018625;28;20205;-87
2020/12/04 07:12:04;;;;;;;19.67;11.80;;;-0.30;91.50;;;;;;5017485;28;20227;-85
2020/12/04 07:14:34;;;;;;;19.03;11.33;;;-0.20;91.40;;;;;;5017991;28;20217;-86
2020/12/04 07:17:01;;;;;;;19.27;11.87;;;-0.10;91.30;;;;;;5022380;28;20295;-84
2020/12/04 07:19:35;;;;;;;22.37;11.10;;;0.00;91.20;;;;;;5022696;28;20217;-82
2020/12/04 07:22:01;;;;;;;19.50;11.40;;;0.00;90.90;;;;;;5029684;28;20310;-82
2020/12/04 07:24:31;;;;;;;24.03;12.40;;;0.10;90.90;;;;;;5021569;28;20257;-81
2020/12/04 07:26:59;;;;;;;18.83;11.93;;;0.10;90.60;;;;;;5025757;28;20232;-85
2020/12/04 07:29:25;;;;;;;17.80;11.40;;;0.10;90.70;;;;;;5028034;28;20312;-83
2020/12/04 07:31:53;;;;;;;20.33;13.07;;;0.30;90.40;;;;;;5024943;28;20222;-84
2020/12/04 07:34:22;;;;;;;19.20;12.30;;;0.40;90.20;;;;;;5030944;28;20199;-86
2020/12/04 07:36:50;;;;;;;22.80;12.03;;;0.40;90.20;;;;;;5025062;28;20205;-83
2020/12/04 07:39:25;;;;;;;19.00;11.40;;;0.40;90.10;;;;;;5034775;28;20660;-81
2020/12/04 07:41:52;;;;;;;18.43;11.13;;;0.50;90.20;;;;;;5018315;28;20207;-86
2020/12/04 07:44:26;;;;;;;18.87;10.73;;;0.60;90.00;;;;;;5027701;28;20556;-81
2020/12/04 07:46:59;;;;;;;18.43;12.27;;;0.60;89.70;;;;;;5020475;28;20194;-81
2020/12/04 07:49:26;;;;;;;18.03;11.20;;;0.70;88.60;;;;;;5031297;28;20543;-81
2020/12/04 07:51:53;;;;;;;18.13;11.40;;;0.70;88.00;;;;;;5030058;28;20202;-82
2020/12/04 07:54:21;;;;;;;18.63;10.70;;;0.80;88.30;;;;;;5026667;28;20208;-81
2020/12/04 07:56:52;;;;;;;17.83;11.07;;;0.80;88.10;;;;;;5023993;28;20625;-81
2020/12/04 07:59:26;;;;;;;16.63;10.80;;;0.80;88.00;;;;;;5023008;28;20226;-81
2020/12/04 08:01:53;;;;;;;17.17;10.37;;;0.90;87.80;;;;;;5023213;28;20214;-83
2020/12/04 08:04:20;;;;;;;18.63;10.60;;;1.00;86.40;;;;;;5023777;28;20232;-82
2020/12/04 08:06:50;;;;;;;17.77;10.63;;;1.10;86.50;;;;;;5031513;28;20731;-85
2020/12/04 08:09:19;;;;;;;19.07;11.13;;;1.20;86.60;;;;;;5031638;28;20209;-82
2020/12/04 08:11:52;;;;;;;16.13;10.67;;;1.30;86.60;;;;;;5025921;28;20215;-82
2020/12/04 08:14:25;;;;;;;16.63;10.47;;;1.20;86.60;;;;;;5024421;28;20288;-80
2020/12/04 08:17:36;;;;;;;15.90;10.17;;;1.20;86.60;;;;;;5025097;28;20191;-80
2020/12/04 08:20:02;;;;;;;19.13;9.83;;;1.40;86.70;;;;;;5015599;28;20600;-80
2020/12/04 08:22:33;;;;;;;14.90;9.23;;;1.50;86.70;;;;;;5034947;28;20221;-79
2020/12/04 08:25:04;;;;;;;14.17;9.30;;;1.50;86.70;;;;;;5030025;28;20198;-82
2020/12/04 08:27:32;;;;;;;15.53;10.10;;;1.60;86.80;;;;;;5014368;28;20681;-79
2020/12/04 08:30:25;;;;;;;19.70;9.03;;;1.70;85.20;;;;;;5017033;28;20599;-80
2020/12/04 08:33:03;;;;;;;13.47;8.80;;;1.80;87.00;;;;;;5050801;28;20201;-80
2020/12/04 08:35:34;;;;;;;16.17;9.50;;;1.90;85.20;;;;;;5030365;28;20289;-81
2020/12/04 08:38:07;;;;;;;16.30;8.27;;;1.90;85.40;;;;;;5033685;28;20236;-85
2020/12/04 08:40:33;;;;;;;15.17;9.10;;;1.90;87.00;;;;;;5025351;28;20211;-84
2020/12/04 08:43:10;;;;;;;14.93;8.97;;;2.00;87.10;;;;;;5026266;28;20231;-88
2020/12/04 08:45:39;;;;;;;15.93;9.27;;;2.10;87.10;;;;;;5038838;28;20190;-81
2020/12/04 08:48:46;;;;;;;15.27;9.60;;;2.20;87.10;;;;;;5039316;28;20662;-81
2020/12/04 08:51:45;;;;;;;13.93;8.77;;;2.30;84.90;;;;;;5038229;28;20277;-81
2020/12/04 08:55:03;;;;;;;15.63;9.63;;;2.40;85.80;;;;;;5028092;28;20196;-82
2020/12/04 08:57:29;;;;;;;23.60;13.23;;;2.40;84.70;;;;;;5033304;28;20210;-85
2020/12/04 08:59:57;;;;;;;18.70;12.00;;;2.50;84.30;;;;;;5029192;28;20210;-83
2020/12/04 09:02:24;;;;;;;16.03;10.17;;;2.50;82.90;;;;;;5018870;28;20235;-81
2020/12/04 09:04:51;;;;;;;14.80;9.73;;;2.50;81.30;;;;;;5036542;28;20180;-88
2020/12/04 09:07:17;;;;;;;18.10;11.07;;;2.50;81.00;;;;;;5046118;28;20819;-87
2020/12/04 09:09:44;;;;;;;18.17;10.90;;;2.40;81.70;;;;;;5027460;28;20199;-86
2020/12/04 09:12:10;;;;;;;16.87;10.30;;;2.50;81.80;;;;;;5034213;28;20264;-84
2020/12/04 09:14:37;;;;;;;15.97;9.97;;;2.40;81.30;;;;;;5024252;28;20230;-88
2020/12/04 09:17:03;;;;;;;16.23;9.87;;;2.40;81.70;;;;;;5015202;28;20243;-85
2020/12/04 09:19:30;;;;;;;16.27;10.20;;;2.40;82.00;;;;;;5016857;28;20210;-85
2020/12/04 09:21:57;;;;;;;16.33;9.50;;;2.50;81.90;;;;;;5022049;28;21563;-84
2020/12/04 09:24:24;;;;;;;14.23;9.83;;;2.60;80.60;;;;;;5017302;28;20233;-87
2020/12/04 09:26:50;;;;;;;13.70;9.10;;;2.50;81.20;;;;;;5019402;28;20456;-91
2020/12/04 09:29:16;;;;;;;14.87;9.80;;;2.40;81.80;;;;;;5013078;28;20453;-88
2020/12/04 09:31:43;;;;;;;14.50;9.60;;;2.50;81.60;;;;;;5014561;28;20222;-87
2020/12/04 09:34:09;;;;;;;15.73;9.80;;;2.50;81.70;;;;;;5012004;28;20222;-86
2020/12/04 09:36:37;;;;;;;13.77;9.37;;;2.40;81.80;;;;;;5011494;28;20459;-88
2020/12/04 09:39:05;;;;;;;17.93;9.60;;;2.40;82.50;;;;;;5011494;28;20218;-89
2020/12/04 09:41:32;;;;;;;16.50;10.40;;;2.50;82.60;;;;;;5014477;28;20199;-84
2020/12/04 09:43:58;;;;;;;15.13;10.03;;;2.60;81.70;;;;;;5013221;28;20237;-85
2020/12/04 09:46:25;;;;;;;14.27;10.03;;;2.70;81.70;;;;;;5011514;28;20209;-83
2020/12/04 09:48:52;;;;;;;18.37;11.40;;;2.70;81.10;;;;;;5016707;28;20230;-86
2020/12/04 09:51:18;;;;;;;14.33;10.13;;;2.80;81.10;;;;;;5013897;28;20213;-83
2020/12/04 09:53:46;;;;;;;16.40;11.20;;;2.90;80.10;;;;;;5016000;28;20588;-84
2020/12/04 09:56:12;;;;;;;16.37;10.40;;;3.10;80.10;;;;;;5016550;28;20209;-84
2020/12/04 09:58:39;;;;;;;15.03;10.30;;;3.30;79.70;;;;;;5013589;28;20237;-87
2020/12/04 10:01:08;;;;;;;12.50;9.00;;;3.40;78.70;;;;;;5015275;28;20226;-85
2020/12/04 10:03:34;;;;;;;13.30;9.13;;;3.40;78.40;;;;;;5023999;28;20222;-86
2020/12/04 10:06:02;;;;;;;12.70;8.73;;;3.60;77.80;;;;;;5014201;28;20209;-84
2020/12/04 10:08:29;;;;;;;10.97;8.20;;;3.60;77.30;;;;;;5028310;28;20606;-86
2020/12/04 10:10:56;;;;;;;15.87;8.90;;;3.70;76.90;;;;;;5015346;28;20206;-82
2020/12/04 10:13:23;;;;;;;14.03;9.47;;;3.70;76.70;;;;;;5022261;28;21037;-86
2020/12/04 10:15:49;;;;;;;13.37;9.13;;;3.70;76.10;;;;;;5024675;28;20199;-84
2020/12/04 10:18:16;;;;;;;13.53;8.43;;;3.70;76.10;;;;;;5026512;28;20223;-87
2020/12/04 10:20:44;;;;;;;12.63;8.13;;;3.70;76.90;;;;;;5020577;28;20198;-86
2020/12/04 10:23:11;;;;;;;12.03;8.10;;;3.60;76.30;;;;;;5026088;28;20223;-88
2020/12/04 10:25:40;;;;;;;11.37;7.77;;;3.60;76.80;;;;;;5025563;28;20250;-87
2020/12/04 10:28:07;;;;;;;12.70;8.30;;;3.60;76.90;;;;;;5016081;28;20523;-84
2020/12/04 10:30:33;;;;;;;12.27;8.10;;;3.60;76.80;;;;;;5028750;28;20188;-86
2020/12/04 10:33:00;;;;;;;13.13;8.87;;;3.50;77.40;;;;;;5029976;28;20521;-85
2020/12/04 10:35:26;;;;;;;12.17;8.40;;;3.60;77.50;;;;;;5029801;28;20192;-84
2020/12/04 10:37:59;;;;;;;12.63;8.13;;;3.60;77.70;;;;;;5020917;28;20223;-86
2020/12/04 10:40:25;;;;;;;12.10;8.37;;;3.60;76.90;;;;;;5028765;28;20206;-86
2020/12/04 10:42:52;;;;;;;12.73;8.20;;;3.30;77.00;;;;;;5025285;28;20249;-84
2020/12/04 10:45:20;;;;;;;15.63;9.10;;;3.20;77.50;;;;;;5038230;28;20213;-88
2020/12/04 10:47:46;;;;;;;11.43;8.03;;;3.20;77.20;;;;;;5022553;28;20334;-86
2020/12/04 10:50:13;;;;;;;17.27;9.17;;;3.20;77.40;;;;;;5025255;28;20214;-87
2020/12/04 10:52:39;;;;;;;12.83;8.63;;;3.20;77.90;;;;;;5023785;28;20644;-85
2020/12/04 10:55:06;;;;;;;18.50;9.77;;;3.20;77.80;;;;;;5026917;28;20570;-84
2020/12/04 10:57:32;;;;;;;18.67;8.47;;;3.10;78.30;;;;;;5026072;28;20617;-86
2020/12/04 10:59:58;;;;;;;16.50;9.20;;;3.20;78.50;;;;;;5035563;28;20230;-84
2020/12/04 11:02:29;;;;;;;16.40;10.53;;;3.30;78.80;;;;;;5019905;28;20290;-84
2020/12/04 11:07:39;;;;;;;16.07;10.07;;;3.30;78.90;;;;;;5022286;28;20346;-86
2020/12/04 11:10:06;;;;;;;17.53;10.50;;;3.30;79.50;;;;;;5027522;28;20672;-85
2020/12/04 11:12:32;;;;;;;19.17;11.57;;;3.30;78.70;;;;;;5016478;28;20597;-85
2020/12/04 11:14:59;;;;;;;16.27;10.57;;;3.30;79.20;;;;;;5019496;28;20210;-85
2020/12/04 11:17:26;;;;;;;16.00;10.53;;;3.40;79.40;;;;;;5021222;28;20237;-86
2020/12/04 11:19:53;;;;;;;17.17;11.43;;;3.50;78.70;;;;;;5016725;28;20203;-83
2020/12/04 11:22:19;;;;;;;16.17;11.37;;;3.60;77.90;;;;;;5027947;28;20214;-89
2020/12/04 11:24:46;;;;;;;16.47;10.50;;;3.70;77.90;;;;;;5033422;28;20222;-85
2020/12/04 11:27:13;;;;;;;17.73;11.10;;;3.80;77.70;;;;;;5016316;28;20226;-83
2020/12/04 11:29:39;;;;;;;17.80;11.17;;;4.00;77.00;;;;;;5018300;28;20826;-84
2020/12/04 11:32:06;;;;;;;17.23;12.47;;;4.10;76.70;;;;;;5014962;28;20827;-84
2020/12/04 11:34:33;;;;;;;23.33;13.53;;;4.30;75.50;;;;;;5020276;28;20198;-85
2020/12/04 11:37:00;;;;;;;25.30;13.97;;;4.30;75.40;;;;;;5012420;28;20603;-87
2020/12/04 11:39:26;;;;;;;20.87;13.30;;;4.40;75.50;;;;;;5020499;28;20195;-88
2020/12/04 11:41:53;;;;;;;20.13;13.23;;;4.60;75.70;;;;;;5015373;28;20216;-84
2020/12/04 11:44:19;;;;;;;19.13;13.03;;;4.70;74.10;;;;;;5020803;28;20313;-87
2020/12/04 11:46:46;;;;;;;20.93;13.20;;;4.90;71.50;;;;;;5011811;28;20194;-90
2020/12/04 11:49:12;;;;;;;18.83;11.63;;;5.00;69.80;;;;;;5015712;28;20207;-87
2020/12/04 11:51:39;;;;;;;18.87;11.60;;;5.10;69.80;;;;;;5009530;28;20202;-88
2020/12/04 11:54:06;;;;;;;17.83;11.13;;;5.10;69.80;;;;;;5011217;28;20234;-91
2020/12/04 11:56:32;;;;;;;17.43;10.17;;;5.10;71.30;;;;;;5021601;28;20649;-89
2020/12/04 11:58:59;;;;;;;17.10;10.33;;;5.40;70.10;;;;;;5023715;28;20225;-92
2020/12/04 12:01:25;;;;;;;16.57;10.03;;;5.50;68.00;;;;;;5017854;28;20332;-90
2020/12/04 12:03:52;;;;;;;14.90;9.27;;;5.80;68.30;;;;;;5020379;28;20587;-89
2020/12/04 12:06:18;;;;;;;16.17;9.10;;;6.00;64.40;;;;;;5032794;28;20657;-89
2020/12/04 12:08:45;;;;;;;18.13;9.27;;;6.00;63.80;;;;;;5034907;28;20234;-90
2020/12/04 12:11:12;;;;;;;11.43;8.23;;;5.90;62.80;;;;;;5035159;28;20281;-90
2020/12/04 12:17:07;;;;;;;12.17;7.40;;;5.90;61.00;;;;;;5031242;28;20182;-91
2020/12/04 12:19:35;;;;;;;12.90;7.43;;;6.00;60.00;;;;;;5023946;28;20198;-85
2020/12/04 12:22:02;;;;;;;13.17;7.77;;;5.80;59.20;;;;;;5030375;28;20252;-89
2020/12/04 12:24:29;;;;;;;11.30;6.57;;;5.80;59.70;;;;;;5036307;28;20615;-89
2020/12/04 12:30:23;;;;;;;9.43;6.60;;;5.80;58.80;;;;;;5023454;28;20191;-84
2020/12/04 12:32:49;;;;;;;9.73;6.70;;;5.90;59.10;;;;;;5027820;28;20214;-87
2020/12/04 12:35:19;;;;;;;9.17;6.50;;;5.90;59.70;;;;;;5026547;28;20199;-84
2020/12/04 12:37:47;;;;;;;11.13;7.60;;;5.90;59.50;;;;;;5021931;28;20322;-84
2020/12/04 12:40:15;;;;;;;11.77;6.90;;;6.00;58.70;;;;;;5022637;28;20666;-83
2020/12/04 12:42:41;;;;;;;11.07;6.50;;;6.10;58.40;;;;;;5021764;28;20284;-83
2020/12/04 12:45:09;;;;;;;10.80;6.63;;;6.20;59.00;;;;;;5020886;28;20199;-84
2020/12/04 12:51:30;;;;;;;13.23;7.43;;;6.30;59.40;;;;;;5020086;28;20669;-87
2020/12/04 12:53:57;;;;;;;13.87;7.20;;;6.40;58.80;;;;;;5020183;28;20198;-88
2020/12/04 12:56:24;;;;;;;15.77;7.93;;;6.50;58.40;;;;;;5028158;28;20207;-89
2020/12/04 12:58:51;;;;;;;11.00;7.77;;;6.70;58.00;;;;;;5025009;28;20241;-87
2020/12/04 13:01:17;;;;;;;16.50;7.90;;;6.80;57.40;;;;;;5029971;28;20216;-89
2020/12/04 13:04:00;;;;;;;20.33;8.97;;;7.00;57.30;;;;;;5025364;28;20597;-87
2020/12/04 13:06:26;;;;;;;17.33;8.17;;;7.10;56.90;;;;;;5035912;28;20566;-87
2020/12/04 13:08:52;;;;;;;18.87;7.87;;;7.20;56.00;;;;;;5024997;28;20214;-85
2020/12/04 13:11:23;;;;;;;11.37;7.30;;;7.30;56.00;;;;;;5025506;28;20202;-88
2020/12/04 13:13:50;;;;;;;14.00;6.30;;;7.50;55.10;;;;;;5027956;28;20233;-85
2020/12/04 13:16:16;;;;;;;12.90;6.73;;;7.50;55.10;;;;;;5026556;28;20288;-85
2020/12/04 13:18:42;;;;;;;13.00;6.33;;;7.60;54.50;;;;;;5036083;28;20224;-90
2020/12/04 13:21:10;;;;;;;11.30;6.07;;;7.60;54.60;;;;;;5024172;28;20261;-88
2020/12/04 13:23:37;;;;;;;16.03;6.03;;;7.60;54.10;;;;;;5022008;28;20219;-91
2020/12/04 13:26:03;;;;;;;17.90;6.53;;;7.70;53.70;;;;;;5038456;28;20194;-88
2020/12/04 13:28:53;;;;;;;15.07;5.47;;;7.80;53.60;;;;;;5023425;28;20623;-89
2020/12/04 13:31:19;;;;;;;18.47;5.60;;;7.90;53.00;;;;;;5017371;28;20612;-90
2020/12/04 13:37:08;;;;;;;12.37;5.10;;;7.90;52.90;;;;;;5020630;28;20242;-90
2020/12/04 13:39:35;;;;;;;15.45;5.30;;;7.80;53.10;;;;;;5040967;28;20225;-91
2020/12/04 13:42:02;;;;;;;8.40;3.73;;;7.70;52.70;;;;;;5027042;28;20259;-87
2020/12/04 13:44:29;;;;;;;17.30;5.50;;;7.60;51.40;;;;;;5035123;28;20514;-87
2020/12/04 13:46:56;;;;;;;25.57;6.90;;;7.60;52.60;;;;;;5031853;28;20289;-87
2020/12/04 13:49:35;;;;;;;17.97;6.63;;;7.60;53.20;;;;;;5031280;28;20213;-89
2020/12/04 13:52:01;;;;;;;18.93;6.87;;;7.70;53.80;;;;;;5030424;28;20195;-87
2020/12/04 13:54:40;;;;;;;24.98;8.25;;;7.70;55.20;;;;;;5027208;28;20578;-88
2020/12/04 13:57:08;;;;;;;20.35;9.25;;;7.60;55.00;;;;;;5032903;28;20328;-87
2020/12/04 13:59:35;;;;;;;18.87;9.50;;;7.60;55.90;;;;;;5036474;28;20222;-88
2020/12/04 14:02:23;;;;;;;17.37;8.43;;;7.50;56.20;;;;;;5057196;28;20216;-87
2020/12/04 14:08:13;;;;;;;18.67;8.67;;;7.20;56.90;;;;;;5038754;28;20596;-89
2020/12/04 14:10:40;;;;;;;16.83;8.53;;;7.10;57.20;;;;;;5031529;28;20202;-90
2020/12/04 14:13:07;;;;;;;19.07;8.60;;;7.00;57.70;;;;;;5026926;28;20234;-90
2020/12/04 14:15:36;;;;;;;18.97;9.30;;;6.90;57.60;;;;;;5032503;28;20576;-88
2020/12/04 14:18:03;;;;;;;15.67;8.33;;;6.70;58.90;;;;;;5027207;28;20246;-90
2020/12/04 14:20:30;;;;;;;12.20;7.97;;;6.60;59.30;;;;;;5018801;28;20190;-89
2020/12/04 14:23:05;;;;;;;18.67;8.13;;;6.40;59.80;;;;;;5018975;28;20277;-90
2020/12/04 14:29:21;;;;;;;14.30;8.57;;;6.30;60.40;;;;;;5026471;28;20199;-90
2020/12/04 14:31:50;;;;;;;15.10;8.13;;;6.30;61.00;;;;;;5018277;28;20198;-90
2020/12/04 14:34:18;;;;;;;9.37;4.40;;;6.20;60.70;;;;;;5016298;28;20215;-89
2020/12/04 14:36:45;;;;;;;9.27;3.77;;;6.20;57.10;;;;;;5023300;28;20634;-90
2020/12/04 14:39:11;;;;;;;9.17;4.20;;;6.50;53.80;;;;;;5028473;28;20237;-87
2020/12/04 14:41:40;;;;;;;6.17;2.50;;;6.60;52.50;;;;;;5021987;28;20209;-85
2020/12/04 14:44:08;;;;;;;7.17;2.67;;;7.10;46.50;;;;;;5025134;28;20317;-87
2020/12/04 14:46:34;;;;;;;5.27;2.57;;;7.60;46.40;;;;;;5024793;28;20510;-86
2020/12/04 14:49:02;;;;;;;3.50;2.40;;;7.70;46.50;;;;;;5017847;28;21034;-87
2020/12/04 14:51:30;;;;;;;6.03;2.20;;;8.00;44.00;;;;;;5019055;28;20210;-86
2020/12/04 14:53:57;;;;;;;4.33;2.50;;;8.20;43.30;;;;;;5031167;28;20234;-85
2020/12/04 14:56:24;;;;;;;3.17;2.10;;;8.20;44.70;;;;;;5035837;28;20194;-83
2020/12/04 14:58:51;;;;;;;8.83;2.40;;;8.20;42.60;;;;;;5026453;28;20223;-87
2020/12/04 15:01:17;;;;;;;7.57;2.10;;;8.20;43.00;;;;;;5021658;28;20728;-85
2020/12/04 15:03:44;;;;;;;2.60;2.00;;;8.20;43.10;;;;;;5030087;28;20664;-85
2020/12/04 15:06:12;;;;;;;4.03;2.00;;;8.10;42.90;;;;;;5027135;28;20220;-85
2020/12/04 15:08:41;;;;;;;5.40;1.90;;;8.10;42.20;;;;;;5021182;28;20222;-86
2020/12/04 15:11:08;;;;;;;2.50;2.30;;;8.10;42.00;;;;;;5027221;28;20199;-88
2020/12/04 15:13:35;;;;;;;3.30;2.13;;;8.10;42.80;;;;;;5033920;28;20235;-91
2020/12/04 15:16:04;;;;;;;5.30;2.70;;;8.00;42.60;;;;;;5028732;28;20209;-91
2020/12/04 15:18:31;;;;;;;4.40;2.30;;;8.00;43.10;;;;;;5020564;28;20248;-88
2020/12/04 15:20:57;;;;;;;6.37;2.13;;;7.90;43.10;;;;;;5016381;28;20210;-91
2020/12/04 15:23:25;;;;;;;7.93;1.97;;;7.90;43.00;;;;;;5024165;28;20236;-88
2020/12/04 15:26:19;;;;;;;4.53;1.63;;;7.90;43.50;;;;;;5020786;28;20199;-87
2020/12/04 15:29:29;;;;;;;8.77;2.23;;;8.10;42.50;;;;;;5017373;28;20241;-86
2020/12/04 15:32:12;;;;;;;4.30;2.50;;;8.00;43.10;;;;;;5020179;28;20274;-88
2020/12/04 15:34:45;;;;;;;3.10;1.90;;;8.00;43.70;;;;;;5018838;28;20724;-86
2020/12/04 15:37:12;;;;;;;9.03;6.00;;;7.90;43.90;;;;;;5035579;28;20197;-85
2020/12/04 15:39:58;;;;;;;6.77;3.40;;;7.80;44.20;;;;;;5035113;28;20201;-90
2020/12/04 15:42:24;;;;;;;7.37;2.47;;;7.70;45.50;;;;;;5035227;28;20226;-88
2020/12/04 15:45:03;;;;;;;5.13;2.00;;;7.50;46.30;;;;;;5033439;28;20234;-88
2020/12/04 15:47:32;;;;;;;4.50;2.23;;;7.40;46.20;;;;;;5033586;28;20245;-89
2020/12/04 15:49:59;;;;;;;4.53;2.13;;;7.30;46.10;;;;;;5022867;28;20203;-85
2020/12/04 15:52:27;;;;;;;3.63;1.97;;;7.30;46.10;;;;;;5029627;28;20226;-85
2020/12/04 15:54:55;;;;;;;2.50;2.30;;;7.20;46.10;;;;;;5034820;28;20208;-89
2020/12/04 15:57:22;;;;;;;4.20;2.13;;;7.30;46.10;;;;;;5046018;28;20222;-87
2020/12/04 16:02:18;;;;;;;3.07;2.10;;;7.30;46.10;;;;;;5041244;28;20292;-88
2020/12/04 16:04:44;;;;;;;3.70;2.17;;;7.20;46.10;;;;;;5038714;28;20229;-89
2020/12/04 16:07:18;;;;;;;5.17;2.53;;;7.20;46.10;;;;;;5034436;28;20313;-85
2020/12/04 16:09:44;;;;;;;5.40;2.63;;;7.10;46.00;;;;;;5031561;28;20195;-86
2020/12/04 16:12:11;;;;;;;5.67;2.60;;;7.00;46.20;;;;;;5030741;28;20191;-85
2020/12/04 16:14:49;;;;;;;5.00;2.70;;;7.00;46.00;;;;;;5024950;28;20225;-85
2020/12/04 16:17:15;;;;;;;4.50;3.00;;;7.00;46.00;;;;;;5018675;28;20237;-84
2020/12/04 16:19:41;;;;;;;7.63;2.73;;;6.90;47.30;;;;;;5021712;28;20214;-84
2020/12/04 16:22:08;;;;;;;5.67;3.00;;;6.90;47.70;;;;;;5025650;28;20199;-84
2020/12/04 16:24:34;;;;;;;9.20;3.23;;;6.90;47.70;;;;;;5023664;28;20313;-87
2020/12/04 16:27:01;;;;;;;6.30;3.07;;;6.90;47.90;;;;;;5024341;28;20203;-87
2020/12/04 16:29:29;;;;;;;4.67;3.10;;;6.80;48.30;;;;;;5032521;28;20191;-89
2020/12/04 16:31:56;;;;;;;12.47;3.10;;;7.00;47.90;;;;;;5025802;28;20229;-85
2020/12/04 16:34:23;;;;;;;6.07;3.70;;;7.00;47.80;;;;;;5025442;28;20760;-84
2020/12/04 16:36:49;;;;;;;7.43;3.20;;;6.90;48.20;;;;;;5024067;28;20204;-83
2020/12/04 16:39:16;;;;;;;6.50;2.63;;;6.80;48.80;;;;;;5025021;28;20618;-84
2020/12/04 16:41:44;;;;;;;3.83;3.23;;;6.70;49.20;;;;;;5030919;28;20203;-91
2020/12/04 16:44:12;;;;;;;7.17;3.57;;;6.70;49.00;;;;;;5030622;28;20264;-87
2020/12/04 16:46:40;;;;;;;5.97;3.17;;;6.80;49.40;;;;;;5042449;28;20229;-89
2020/12/04 16:49:10;;;;;;;6.30;3.47;;;6.70;49.30;;;;;;5029119;28;20269;-86
2020/12/04 16:51:36;;;;;;;111.43;71.67;;;6.80;49.20;;;;;;5025222;28;20227;-89
2020/12/04 16:54:03;;;;;;;6.50;3.30;;;6.80;49.20;;;;;;5025090;28;20239;-83
2020/12/04 16:56:30;;;;;;;6.13;3.13;;;6.80;49.20;;;;;;5026603;28;20201;-86
2020/12/04 16:58:59;;;;;;;5.90;3.20;;;6.70;49.50;;;;;;5005756;28;20230;-85
2020/12/04 17:01:26;;;;;;;7.60;3.60;;;6.60;50.10;;;;;;5024129;28;20213;-83
2020/12/04 17:03:52;;;;;;;6.17;3.20;;;6.50;50.70;;;;;;5023148;28;20235;-87
2020/12/04 17:06:21;;;;;;;6.40;2.93;;;6.40;50.80;;;;;;5026831;28;20205;-86
2020/12/04 17:08:48;;;;;;;5.97;3.10;;;6.30;51.50;;;;;;5026143;28;20298;-83
2020/12/04 17:11:15;;;;;;;6.47;3.20;;;6.20;52.00;;;;;;5027670;28;20267;-86
2020/12/04 17:13:42;;;;;;;5.23;3.40;;;6.20;51.80;;;;;;5032274;28;20232;-85
2020/12/04 17:16:11;;;;;;;6.00;3.40;;;6.10;52.90;;;;;;5025649;28;20233;-85
2020/12/04 17:18:38;;;;;;;5.20;3.30;;;6.10;52.50;;;;;;5030473;28;20234;-84
2020/12/04 17:21:06;;;;;;;5.37;3.33;;;6.10;52.40;;;;;;5028012;28;20242;-84
2020/12/04 17:23:34;;;;;;;5.47;3.90;;;6.00;53.50;;;;;;5026669;28;20305;-84
2020/12/04 17:26:00;;;;;;;7.70;3.80;;;5.90;53.60;;;;;;5028160;28;20249;-84
2020/12/04 17:28:27;;;;;;;7.00;4.23;;;5.80;54.60;;;;;;5026286;28;20697;-87
2020/12/04 17:30:54;;;;;;;8.57;4.03;;;5.70;55.30;;;;;;5029910;28;20209;-85
2020/12/04 17:33:20;;;;;;;5.60;4.00;;;5.70;56.30;;;;;;5036288;28;20286;-87
2020/12/04 17:35:46;;;;;;;7.47;4.80;;;5.60;56.20;;;;;;5030628;28;20226;-86
2020/12/04 17:38:13;;;;;;;6.53;4.60;;;5.60;56.80;;;;;;5027269;28;20227;-85
2020/12/04 17:40:40;;;;;;;10.63;5.60;;;5.60;57.70;;;;;;5024534;28;20207;-86
2020/12/04 17:43:06;;;;;;;8.23;5.53;;;5.50;58.70;;;;;;5023208;28;20626;-86
2020/12/04 17:45:33;;;;;;;8.50;5.07;;;5.40;59.20;;;;;;5021883;28;20588;-85
2020/12/04 17:47:59;;;;;;;7.93;5.37;;;5.30;59.40;;;;;;5028011;28;20236;-84
2020/12/04 17:50:25;;;;;;;10.87;6.30;;;5.40;60.70;;;;;;5032441;28;20198;-86
2020/12/04 17:52:51;;;;;;;12.57;5.33;;;5.30;60.80;;;;;;5031520;28;20719;-85
2020/12/04 17:55:18;;;;;;;10.40;5.97;;;5.30;60.80;;;;;;5032696;28;21420;-84
2020/12/04 17:57:45;;;;;;;8.97;5.57;;;5.30;62.10;;;;;;5029285;28;20214;-86
2020/12/04 18:00:12;;;;;;;13.33;6.50;;;5.20;61.80;;;;;;5028857;28;20234;-88
2020/12/04 18:02:38;;;;;;;9.40;5.60;;;5.30;63.20;;;;;;5034195;28;20294;-85
2020/12/04 18:05:05;;;;;;;7.63;4.93;;;5.20;62.90;;;;;;5029197;28;20232;-84
2020/12/04 18:07:32;;;;;;;10.90;5.57;;;5.20;63.10;;;;;;5029947;28;20233;-85
2020/12/04 18:09:58;;;;;;;8.67;5.70;;;5.10;63.30;;;;;;5026614;28;20203;-84
2020/12/04 18:12:25;;;;;;;8.00;5.03;;;5.10;63.80;;;;;;5028067;28;20222;-84
2020/12/04 18:18:20;;;;;;;8.83;4.90;;;5.00;63.60;;;;;;5035588;28;20218;-86
2020/12/04 18:20:46;;;;;;;8.00;5.63;;;4.90;63.60;;;;;;5034086;28;20197;-87
2020/12/04 18:23:13;;;;;;;10.87;7.20;;;4.90;64.60;;;;;;5033903;28;20239;-85
2020/12/04 18:25:39;;;;;;;12.40;7.90;;;4.80;65.20;;;;;;5031973;28;20258;-86
2020/12/04 18:28:07;;;;;;;16.83;8.23;;;4.80;64.90;;;;;;5029760;28;20765;-88
2020/12/04 18:30:34;;;;;;;12.80;5.87;;;4.80;66.50;;;;;;5033389;28;20264;-85
2020/12/04 18:33:00;;;;;;;9.00;5.97;;;4.90;67.80;;;;;;5029629;28;20257;-85
2020/12/04 18:35:27;;;;;;;9.03;5.90;;;4.80;69.20;;;;;;5028706;28;20205;-86
2020/12/04 18:37:55;;;;;;;8.07;4.97;;;4.70;69.50;;;;;;5034385;28;20587;-83
2020/12/04 18:40:21;;;;;;;10.53;5.10;;;4.70;65.90;;;;;;5033885;28;20274;-85
2020/12/04 18:42:49;;;;;;;8.37;5.57;;;4.70;68.90;;;;;;5029380;28;20595;-83
2020/12/04 18:45:18;;;;;;;10.33;5.40;;;4.80;63.50;;;;;;5030410;28;20223;-85
2020/12/04 18:47:45;;;;;;;9.87;4.63;;;4.90;61.50;;;;;;5030500;28;20313;-87
2020/12/04 18:50:12;;;;;;;5.73;3.73;;;5.00;61.60;;;;;;5027769;28;20191;-92
2020/12/04 18:52:39;;;;;;;9.03;4.63;;;5.10;59.00;;;;;;5036359;28;20237;-88
2020/12/04 18:55:06;;;;;;;6.60;4.70;;;5.10;59.60;;;;;;5048811;28;20687;-89
2020/12/04 18:57:32;;;;;;;8.03;4.03;;;5.10;60.00;;;;;;5052227;28;20227;-87
2020/12/04 19:05:09;;;;;;;7.53;4.27;;;5.30;56.30;;;;;;4985052;28;20295;-85
2020/12/04 19:07:36;;;;;;;6.23;3.97;;;5.40;56.40;;;;;;4976274;28;20901;-86
2020/12/04 19:10:17;;;;;;;5.63;3.90;;;5.50;55.90;;;;;;4959950;28;20235;-88